Time;durP1;ratioP1;P1;durP2;ratioP2;P2;SDS_P1;SDS_P2;PMS_P1;PMS_P2;Temp;Humidity;BMP_temperature;BMP_pressure;BME280_temperature;BME280_humidity;BME280_pressure;Samples;Min_cycle;Max_cycle;Signal;HPM_P1;HPM_P2
2023/01/03 00:01:59;;;;;;;;;;;;;;;18.06;40.55;100289.16;10506016;28;1267;-57
2023/01/03 00:06:59;;;;;;;;;;;;;;;18.00;40.66;100292.34;10505272;28;1902;-58
2023/01/03 00:17:18;;;;;;;;;;;;;;;17.89;40.47;100297.81;10505337;28;1102;-58
2023/01/03 00:22:18;;;;;;;;;;;;;;;17.84;40.66;100299.22;10505331;28;1238;-58
2023/01/03 00:27:19;;;;;;;;;;;;;;;17.85;40.58;100303.56;10505310;28;1902;-59
2023/01/03 00:32:19;;;;;;;;;;;;;;;17.87;40.57;100306.91;10504816;28;1179;-58
2023/01/03 00:37:19;;;;;;;;;;;;;;;17.88;40.31;100317.38;10504936;28;956;-58
2023/01/03 00:42:19;;;;;;;;;;;;;;;17.88;40.17;100322.69;10504059;28;1201;-58
2023/01/03 00:47:19;;;;;;;;;;;;;;;17.87;40.24;100330.81;10504686;28;2024;-57
2023/01/03 00:52:20;;;;;;;;;;;;;;;17.86;40.36;100329.97;10504200;28;1185;-56
2023/01/03 00:57:20;;;;;;;;;;;;;;;17.88;40.25;100337.78;10485641;28;848;-57
2023/01/03 01:02:20;;;;;;;;;;;;;;;17.88;40.00;100348.41;10504186;28;1287;-59
2023/01/03 01:07:20;;;;;;;;;;;;;;;17.87;39.82;100344.91;10503021;28;1955;-59
2023/01/03 01:12:20;;;;;;;;;;;;;;;17.87;39.98;100346.75;10503325;28;1181;-57
2023/01/03 01:17:21;;;;;;;;;;;;;;;17.85;39.96;100365.47;10502744;28;860;-57
2023/01/03 01:22:21;;;;;;;;;;;;;;;17.83;39.94;100363.94;10502371;28;1192;-57
2023/01/03 01:27:21;;;;;;;;;;;;;;;17.80;39.88;100373.00;10502124;28;1906;-57
2023/01/03 01:32:21;;;;;;;;;;;;;;;17.79;39.96;100376.63;10502056;28;1293;-60
2023/01/03 01:37:21;;;;;;;;;;;;;;;17.78;39.91;100385.56;10484641;28;980;-57
2023/01/03 01:47:40;;;;;;;;;;;;;;;17.81;39.70;100392.44;10501518;28;1971;-58
2023/01/03 01:52:42;;;;;;;;;;;;;;;17.82;39.59;100397.63;10501583;28;1315;-58
2023/01/03 01:57:42;;;;;;;;;;;;;;;17.81;39.70;100403.91;10483399;28;932;-58
2023/01/03 02:02:42;;;;;;;;;;;;;;;17.81;39.69;100400.41;10501541;28;1179;-59
2023/01/03 02:07:43;;;;;;;;;;;;;;;17.82;39.56;100397.63;10501676;28;1901;-57
2023/01/03 02:13:06;;;;;;;;;;;;;;;17.80;39.64;100404.88;10500701;28;1197;-58
2023/01/03 02:18:12;;;;;;;;;;;;;;;17.80;39.58;100414.66;10483699;28;856;-58
2023/01/03 02:23:25;;;;;;;;;;;;;;;17.80;39.49;100415.50;10482829;28;2344;-58
2023/01/03 02:28:28;;;;;;;;;;;;;;;17.81;39.49;100426.97;10482288;28;2477;-58
2023/01/03 02:33:28;;;;;;;;;;;;;;;17.81;39.54;100430.47;10500280;28;1212;-58
2023/01/03 02:39:01;;;;;;;;;;;;;;;17.81;39.50;100424.31;10499945;28;789;-58
2023/01/03 02:44:05;;;;;;;;;;;;;;;17.84;39.34;100432.88;10466164;28;1918;-59
2023/01/03 02:49:11;;;;;;;;;;;;;;;17.86;39.29;100440.66;10482605;28;843;-59
2023/01/03 02:54:14;;;;;;;;;;;;;;;17.87;39.23;100439.69;10499717;28;1203;-58
2023/01/03 02:59:15;;;;;;;;;;;;;;;17.89;39.29;100449.22;10482216;28;1189;-60
2023/01/03 03:04:16;;;;;;;;;;;;;;;17.90;39.20;100463.34;10481906;28;1976;-59
2023/01/03 03:09:16;;;;;;;;;;;;;;;17.90;39.22;100464.19;10481552;28;938;-59
2023/01/03 03:14:19;;;;;;;;;;;;;;;17.89;39.08;100472.28;10481292;28;1259;-58
2023/01/03 03:24:48;;;;;;;;;;;;;;;17.83;39.45;100480.81;10499013;28;1905;-57
2023/01/03 03:29:49;;;;;;;;;;;;;;;17.79;39.42;100488.19;10499777;28;1179;-58
2023/01/03 03:34:49;;;;;;;;;;;;;;;17.77;39.26;100490.16;10481608;28;1034;-58
2023/01/03 03:45:10;;;;;;;;;;;;;;;17.83;39.25;100507.38;10483685;28;1959;-58
2023/01/03 03:50:12;;;;;;;;;;;;;;;17.86;38.91;100520.34;10481812;28;1279;-58
2023/01/03 03:55:16;;;;;;;;;;;;;;;17.88;39.01;100526.38;10488360;28;1024;-59
2023/01/03 04:00:18;;;;;;;;;;;;;;;17.85;39.10;100538.09;10506847;28;1201;-59
2023/01/03 04:05:19;;;;;;;;;;;;;;;17.86;39.14;100547.75;10488403;28;1965;-58
2023/01/03 04:10:20;;;;;;;;;;;;;;;17.84;39.00;100552.38;10488156;28;1185;-57
2023/01/03 04:15:20;;;;;;;;;;;;;;;17.81;39.10;100559.75;10487931;28;964;-58
2023/01/03 04:20:20;;;;;;;;;;;;;;;17.82;39.00;100569.41;10505106;28;1168;-59
2023/01/03 04:25:21;;;;;;;;;;;;;;;17.81;39.13;100575.69;10505498;28;1913;-58
2023/01/03 04:30:21;;;;;;;;;;;;;;;17.81;39.01;100584.50;10505232;28;1215;-58
2023/01/03 04:35:21;;;;;;;;;;;;;;;17.81;39.00;100587.16;10504620;28;800;-57
2023/01/03 04:40:21;;;;;;;;;;;;;;;17.87;38.91;100597.25;10504359;28;1177;-58
2023/01/03 04:45:22;;;;;;;;;;;;;;;17.88;39.07;100598.09;10504072;28;1966;-59
2023/01/03 04:50:22;;;;;;;;;;;;;;;17.85;39.00;100609.00;10485883;28;1177;-58
2023/01/03 04:55:22;;;;;;;;;;;;;;;17.81;39.00;100629.66;10503756;28;948;-59
2023/01/03 05:00:22;;;;;;;;;;;;;;;17.82;39.11;100634.00;10504525;28;1219;-58
2023/01/03 05:05:22;;;;;;;;;;;;;;;17.82;39.06;100644.63;10503884;28;1975;-59
2023/01/03 05:10:23;;;;;;;;;;;;;;;17.86;39.35;100655.81;10503588;28;1211;-58
2023/01/03 05:15:23;;;;;;;;;;;;;;;17.84;39.22;100655.13;10503600;28;851;-58
2023/01/03 05:25:48;;;;;;;;;;;;;;;17.81;38.96;100664.19;10503024;28;2003;-57
2023/01/03 05:30:48;;;;;;;;;;;;;;;17.85;39.10;100676.22;10503977;28;1242;-58
2023/01/03 05:35:49;;;;;;;;;;;;;;;17.82;39.06;100683.63;10484134;28;896;-58
2023/01/03 05:40:49;;;;;;;;;;;;;;;17.82;39.06;100696.91;10502248;28;1252;-58
2023/01/03 05:45:50;;;;;;;;;;;;;;;17.83;39.00;100701.25;10483867;28;1983;-58
2023/01/03 05:50:51;;;;;;;;;;;;;;;17.87;39.05;100707.97;10501830;28;1349;-59
2023/01/03 05:55:51;;;;;;;;;;;;;;;17.89;38.78;100716.66;10501199;28;1050;-58
2023/01/03 06:00:51;;;;;;;;;;;;;;;17.87;38.93;100729.22;10501545;28;1192;-59
2023/01/03 06:05:51;;;;;;;;;;;;;;;17.87;38.74;100729.22;10482973;28;1914;-58
2023/01/03 06:10:51;;;;;;;;;;;;;;;17.84;38.94;100740.13;10501197;28;1260;-59
2023/01/03 06:21:11;;;;;;;;;;;;;;;17.80;38.87;100760.78;10500490;28;1280;-59
2023/01/03 06:26:11;;;;;;;;;;;;;;;17.79;39.06;100779.50;10500296;28;1990;-59
2023/01/03 06:31:11;;;;;;;;;;;;;;;17.78;38.89;100793.75;10500179;28;1200;-58
2023/01/03 06:36:12;;;;;;;;;;;;;;;17.76;38.98;100796.53;10500138;28;888;-58
2023/01/03 06:41:12;;;;;;;;;;;;;;;17.77;38.76;100808.88;10500636;28;1262;-58
2023/01/03 06:56:50;;;;;;;;;;;;;;;17.82;39.38;100841.19;10500395;28;667;-58
2023/01/03 07:01:50;;;;;;;;;;;;;;;17.61;38.96;100841.13;10500076;28;1279;-57
2023/01/03 07:06:50;;;;;;;;;;;;;;;17.67;39.81;100856.56;10499429;28;1914;-58
2023/01/03 16:31:47;;;;;;;;;;;;;;;17.92;35.86;101572.78;10537427;27;1664;-59
2023/01/03 16:36:47;;;;;;;;;;;;;;;17.97;35.61;101580.41;10535560;28;1773;-57
2023/01/03 16:47:14;;;;;;;;;;;;;;;17.96;35.98;101586.69;10535815;28;1910;-57
2023/01/03 16:52:15;;;;;;;;;;;;;;;18.00;35.84;101583.69;10535063;28;1192;-57
2023/01/03 16:57:19;;;;;;;;;;;;;;;18.06;35.94;101591.25;10536100;28;933;-58
2023/01/03 17:02:19;;;;;;;;;;;;;;;18.07;36.14;101592.94;10536264;28;1383;-57
2023/01/03 17:07:20;;;;;;;;;;;;;;;18.08;36.30;101599.09;10535777;28;1910;-58
2023/01/03 17:12:20;;;;;;;;;;;;;;;18.19;36.02;101599.19;10533769;28;1257;-58
2023/01/03 17:17:21;;;;;;;;;;;;;;;18.20;35.82;101600.88;10535356;28;950;-56
2023/01/03 17:22:24;;;;;;;;;;;;;;;18.15;35.91;101615.47;10534587;28;1261;-58
2023/01/03 17:27:25;;;;;;;;;;;;;;;18.12;35.97;101612.06;10540227;28;1894;-58
2023/01/03 17:32:25;;;;;;;;;;;;;;;18.15;35.69;101613.66;10576227;28;1357;-58
2023/01/03 17:37:25;;;;;;;;;;;;;;;18.19;35.97;101625.75;10576290;28;872;-59
2023/01/03 17:42:27;;;;;;;;;;;;;;;18.21;35.85;101623.00;10551183;28;1258;-58
2023/01/03 17:52:46;;;;;;;;;;;;;;;18.24;35.63;101628.94;10547593;28;1271;-58
2023/01/03 17:57:46;;;;;;;;;;;;;;;18.29;35.63;101640.13;10546985;28;875;-59
2023/01/03 18:02:47;;;;;;;;;;;;;;;18.31;35.91;101634.69;10545965;28;1217;-58
2023/01/03 18:07:47;;;;;;;;;;;;;;;18.38;35.84;101636.81;10547206;28;1922;-57
2023/01/03 18:12:47;;;;;;;;;;;;;;;18.35;35.86;101649.44;10545703;28;1286;-57
2023/01/03 18:17:47;;;;;;;;;;;;;;;18.37;35.48;101651.06;10546208;28;864;-58
2023/01/03 18:22:47;;;;;;;;;;;;;;;18.39;35.37;101661.56;10546796;28;1207;-58
2023/01/03 18:27:49;;;;;;;;;;;;;;;18.37;35.68;101664.34;10546067;28;1913;-58
2023/01/03 18:32:49;;;;;;;;;;;;;;;18.37;35.56;101668.81;10545940;28;1182;-59
2023/01/03 18:37:49;;;;;;;;;;;;;;;18.39;35.60;101667.72;10545527;28;876;-56
2023/01/03 18:43:08;;;;;;;;;;;;;;;18.42;35.38;101667.53;10543975;28;1416;-58
2023/01/03 18:48:15;;;;;;;;;;;;;;;18.51;35.48;101674.00;10545759;28;1983;-58
2023/01/03 18:53:17;;;;;;;;;;;;;;;18.54;35.51;101670.28;10544616;28;1227;-59
2023/01/03 18:58:30;;;;;;;;;;;;;;;18.64;35.30;101682.81;10544523;28;868;-57
2023/01/03 19:03:31;;;;;;;;;;;;;;;18.71;35.00;101683.22;10545333;28;1193;-57
2023/01/03 19:08:31;;;;;;;;;;;;;;;18.94;34.25;101693.03;10544080;28;1901;-58
2023/01/03 19:13:48;;;;;;;;;;;;;;;18.99;34.04;101690.06;10543964;28;1197;-57
2023/01/03 19:18:49;;;;;;;;;;;;;;;18.98;34.21;101686.53;10544487;28;902;-57
2023/01/03 19:23:55;;;;;;;;;;;;;;;19.05;34.15;101690.44;10543451;28;1180;-59
2023/01/03 19:28:57;;;;;;;;;;;;;;;19.00;34.56;101689.91;10543108;28;1988;-58
2023/01/03 19:33:57;;;;;;;;;;;;;;;18.96;34.63;101698.25;10543163;28;1193;-57
2023/01/03 19:38:57;;;;;;;;;;;;;;;18.86;34.99;101700.72;10543605;28;847;-57
2023/01/03 19:43:58;;;;;;;;;;;;;;;18.80;34.94;101703.84;10543672;28;1214;-58
2023/01/03 19:48:58;;;;;;;;;;;;;;;18.69;35.86;101696.63;10542074;28;1910;-57
2023/01/03 19:53:58;;;;;;;;;;;;;;;18.69;35.59;101699.28;10542420;28;1283;-58
2023/01/03 19:58:58;;;;;;;;;;;;;;;18.73;35.38;101715.91;10542395;28;861;-57
2023/01/03 20:03:58;;;;;;;;;;;;;;;18.77;36.12;101714.69;10542432;28;1195;-59
2023/01/03 20:08:59;;;;;;;;;;;;;;;18.74;35.67;101699.81;10543154;28;1968;-58
2023/01/03 20:13:59;;;;;;;;;;;;;;;18.80;35.42;101699.38;10541794;28;1185;-58
2023/01/03 20:18:59;;;;;;;;;;;;;;;18.82;35.37;101707.25;10542428;28;959;-57
2023/01/03 20:24:00;;;;;;;;;;;;;;;18.82;35.49;101709.91;10541894;28;1196;-58
2023/01/03 20:29:00;;;;;;;;;;;;;;;18.81;35.34;101714.38;10541334;28;1906;-57
2023/01/03 20:34:05;;;;;;;;;;;;;;;18.89;35.48;101714.69;10541458;28;1206;-58
2023/01/03 20:39:07;;;;;;;;;;;;;;;18.89;35.46;101728.00;10543853;28;1023;-58
2023/01/03 20:44:08;;;;;;;;;;;;;;;18.93;35.46;101725.09;10539959;28;1313;-58
2023/01/03 20:49:13;;;;;;;;;;;;;;;18.88;35.29;101728.94;10539896;28;1909;-59
2023/01/03 20:54:14;;;;;;;;;;;;;;;18.86;35.71;101720.22;10541673;28;1181;-57
2023/01/03 20:59:15;;;;;;;;;;;;;;;18.86;35.65;101725.53;10541532;28;1211;-57
2023/01/03 21:04:15;;;;;;;;;;;;;;;18.84;35.59;101723.97;10541874;28;1316;-58
2023/01/03 21:09:15;;;;;;;;;;;;;;;18.85;35.58;101715.00;10539300;28;1955;-59
2023/01/03 21:14:16;;;;;;;;;;;;;;;18.87;35.64;101711.28;10541746;28;1179;-58
2023/01/03 21:19:17;;;;;;;;;;;;;;;18.89;35.37;101709.34;10548543;28;879;-58
2023/01/03 21:24:18;;;;;;;;;;;;;;;18.92;35.33;101716.25;10548903;28;1185;-56
2023/01/03 21:29:18;;;;;;;;;;;;;;;18.94;35.48;101721.47;10548848;28;1910;-57
2023/01/03 21:34:19;;;;;;;;;;;;;;;18.96;35.39;101730.19;10546970;28;1367;-56
2023/01/03 21:39:19;;;;;;;;;;;;;;;19.01;35.17;101744.00;10547701;28;872;-57
2023/01/03 21:44:19;;;;;;;;;;;;;;;18.93;35.38;101749.88;10547495;28;1196;-57
2023/01/03 21:49:20;;;;;;;;;;;;;;;18.95;35.37;101747.13;10547317;28;1963;-57
2023/01/03 21:54:20;;;;;;;;;;;;;;;19.00;35.36;101750.28;10547097;28;1290;-57
2023/01/03 21:59:20;;;;;;;;;;;;;;;18.94;35.65;101748.09;10547060;28;1063;-57
2023/01/03 22:04:20;;;;;;;;;;;;;;;18.93;35.64;101752.56;10547358;28;1337;-57
2023/01/03 22:14:39;;;;;;;;;;;;;;;18.89;35.73;101749.28;10546465;28;1363;-58
2023/01/03 22:19:39;;;;;;;;;;;;;;;18.88;35.49;101750.25;10546217;28;879;-58
2023/01/03 22:24:40;;;;;;;;;;;;;;;18.83;35.62;101759.53;10546210;28;1208;-59
2023/01/03 22:29:40;;;;;;;;;;;;;;;18.80;35.75;101755.25;10544298;28;1991;-58
2023/01/03 22:34:40;;;;;;;;;;;;;;;18.81;35.67;101748.97;10545629;28;1215;-58
2023/01/03 22:39:40;;;;;;;;;;;;;;;18.85;35.60;101739.81;10546021;28;996;-58
2023/01/03 22:44:40;;;;;;;;;;;;;;;18.85;35.64;101752.25;10545164;28;1181;-58
2023/01/03 22:49:41;;;;;;;;;;;;;;;18.83;35.87;101752.38;10545015;28;1906;-58
2023/01/03 22:54:41;;;;;;;;;;;;;;;18.87;35.72;101753.00;10545699;28;1259;-58
2023/01/03 22:59:41;;;;;;;;;;;;;;;18.89;35.83;101757.25;10545412;28;891;-58
2023/01/03 23:04:42;;;;;;;;;;;;;;;18.88;35.73;101755.56;10544956;28;1259;-58
2023/01/03 23:09:43;;;;;;;;;;;;;;;18.82;35.97;101752.50;10544229;28;1967;-58
2023/01/03 23:14:43;;;;;;;;;;;;;;;18.74;36.05;101754.84;10544003;28;1184;-58
2023/01/03 23:19:44;;;;;;;;;;;;;;;18.64;36.37;101759.13;10544399;28;892;-58
2023/01/03 23:24:44;;;;;;;;;;;;;;;18.51;36.54;101749.31;10544285;28;1187;-58
2023/01/03 23:29:44;;;;;;;;;;;;;;;18.41;36.51;101766.00;10543318;28;1988;-58
2023/01/03 23:34:44;;;;;;;;;;;;;;;18.30;36.72;101772.09;10543824;28;1200;-58
2023/01/03 23:39:44;;;;;;;;;;;;;;;18.17;36.91;101757.06;10542684;28;917;-58
2023/01/03 23:44:44;;;;;;;;;;;;;;;18.08;37.04;101746.13;10543529;28;1258;-58
2023/01/03 23:49:45;;;;;;;;;;;;;;;18.00;37.07;101761.75;10543130;28;1902;-58
2023/01/03 23:54:45;;;;;;;;;;;;;;;17.96;37.15;101760.25;10542735;28;1207;-58
2023/01/03 23:59:45;;;;;;;;;;;;;;;17.96;37.18;101760.25;10543024;28;853;-60
